createdAt,value
2019-01-26T00:02:35.527Z,78.50
2019-01-26T00:07:54.366Z,64.27
2019-01-26T00:13:18.742Z,32.63
2019-01-26T00:18:51.475Z,62.97
2019-01-26T00:24:10.152Z,92.27
2019-01-26T00:29:32.878Z,93.37
2019-01-26T00:34:51.678Z,91.83
2019-01-26T00:40:13.244Z,111.80
2019-01-26T00:45:32.157Z,56.90
2019-01-26T00:50:51.121Z,87.77
2019-01-26T00:56:09.848Z,75.30
2019-01-26T01:01:28.784Z,90.23
2019-01-26T01:06:47.478Z,89.47
2019-01-26T01:12:06.549Z,65.80
2019-01-26T01:17:25.094Z,94.80
2019-01-26T01:22:43.731Z,118.23
2019-01-26T01:28:05.350Z,76.13
2019-01-26T01:33:23.952Z,129.23
2019-01-26T01:38:42.792Z,151.17
2019-01-26T01:44:01.454Z,158.13
2019-01-26T01:49:20.087Z,188.63
2019-01-26T01:54:38.641Z,119.13
2019-01-26T01:59:57.284Z,121.40
2019-01-26T02:05:17.530Z,99.77
2019-01-26T02:10:39.986Z,95.73
2019-01-26T02:15:59.932Z,193.23
2019-01-26T02:21:19.004Z,188.90
2019-01-26T02:26:40.324Z,144.50
2019-01-26T02:32:03.231Z,227.38
2019-01-26T02:37:22.004Z,149.55
2019-01-26T02:42:41.670Z,124.13
2019-01-26T02:48:02.107Z,200.20
2019-01-26T02:53:20.679Z,137.63
2019-01-26T02:58:39.260Z,304.77
2019-01-26T03:03:57.910Z,253.07
2019-01-26T03:09:16.546Z,203.60
2019-01-26T03:14:35.150Z,277.30
2019-01-26T03:19:53.742Z,261.00
2019-01-26T03:25:15.070Z,264.60
2019-01-26T03:30:33.699Z,230.13
2019-01-26T03:35:52.617Z,305.03
2019-01-26T03:41:11.271Z,181.23
2019-01-26T03:46:29.905Z,267.20
2019-01-26T03:51:48.451Z,216.50
2019-01-26T03:57:07.074Z,170.93
2019-01-26T04:02:25.717Z,254.07
2019-01-26T04:07:44.698Z,293.07
2019-01-26T04:13:03.332Z,211.13
2019-01-26T04:18:21.974Z,161.97
2019-01-26T04:23:40.615Z,194.17
2019-01-26T04:28:59.123Z,150.73
2019-01-26T04:34:18.020Z,234.40
2019-01-26T04:39:36.514Z,188.93
2019-01-26T04:44:55.220Z,201.35
2019-01-26T04:50:15.853Z,221.20
2019-01-26T04:55:34.419Z,253.10
2019-01-26T05:00:53.063Z,94.20
2019-01-26T05:06:11.698Z,295.47
2019-01-26T05:11:30.330Z,245.47
2019-01-26T05:16:48.895Z,180.33
2019-01-26T05:22:07.551Z,155.37
2019-01-26T05:27:26.207Z,252.10
2019-01-26T05:32:44.862Z,238.23
2019-01-26T05:38:04.048Z,314.20
2019-01-26T05:43:22.605Z,203.67
2019-01-26T05:48:41.314Z,201.67
2019-01-26T05:53:59.920Z,124.25
2019-01-26T05:59:20.774Z,149.87
2019-01-26T06:04:40.025Z,272.97
2019-01-26T06:09:58.578Z,326.67
2019-01-26T06:15:17.708Z,188.70
2019-01-26T06:20:36.348Z,231.17
2019-01-26T06:25:54.997Z,225.43
2019-01-26T06:31:13.626Z,244.73
2019-01-26T06:36:32.312Z,106.53
2019-01-26T06:41:50.984Z,216.93
2019-01-26T06:47:09.625Z,255.80
2019-01-26T06:52:28.107Z,199.53
2019-01-26T06:57:46.872Z,145.77
2019-01-26T07:03:05.530Z,235.03
2019-01-26T07:08:24.324Z,182.93
2019-01-26T07:13:42.966Z,182.57
2019-01-26T07:19:01.556Z,170.80
2019-01-26T07:24:21.004Z,217.77
2019-01-26T07:29:39.676Z,198.80
2019-01-26T07:34:58.521Z,154.63
2019-01-26T07:40:22.205Z,124.90
2019-01-26T07:45:40.835Z,138.45
2019-01-26T07:50:59.491Z,148.67
2019-01-26T07:56:18.132Z,165.73
2019-01-26T08:01:36.798Z,192.57
2019-01-26T08:06:55.442Z,168.33
2019-01-26T08:12:14.112Z,86.43
2019-01-26T08:17:33.058Z,68.07
2019-01-26T08:22:51.683Z,86.10
2019-01-26T08:28:10.506Z,181.93
2019-01-26T08:33:29.163Z,175.97
2019-01-26T08:38:48.711Z,133.67
2019-01-26T08:44:08.225Z,187.67
2019-01-26T08:49:29.132Z,162.32
2019-01-26T08:54:48.010Z,164.13
2019-01-26T09:00:15.817Z,171.73
2019-01-26T09:05:44.869Z,144.57
2019-01-26T09:11:03.576Z,113.70
2019-01-26T09:16:23.210Z,94.03
2019-01-26T09:21:42.768Z,56.13
2019-01-26T09:27:04.160Z,123.60
2019-01-26T09:32:23.006Z,147.57
2019-01-26T09:37:41.787Z,110.30
2019-01-26T09:43:00.671Z,113.10
2019-01-26T09:48:29.856Z,114.20
2019-01-26T09:53:54.140Z,82.57
2019-01-26T09:59:13.806Z,56.57
2019-01-26T10:04:38.909Z,117.77
2019-01-26T10:10:05.777Z,109.27
2019-01-26T10:15:27.094Z,102.23
2019-01-26T10:20:49.931Z,88.53
2019-01-26T10:26:08.627Z,105.37
2019-01-26T10:31:27.551Z,70.20
2019-01-26T10:37:17.250Z,93.07
2019-01-26T10:42:46.395Z,88.40
2019-01-26T10:48:05.356Z,70.40
2019-01-26T10:53:23.984Z,80.90
2019-01-26T10:58:49.755Z,90.23
2019-01-26T11:04:10.453Z,77.57
2019-01-26T11:09:29.002Z,77.53
2019-01-26T11:14:47.498Z,64.63
2019-01-26T11:20:09.134Z,71.53
2019-01-26T11:25:27.807Z,44.40
2019-01-26T11:30:46.356Z,61.70
2019-01-26T11:36:05.369Z,79.00
2019-01-26T11:41:24.223Z,40.30
2019-01-26T11:46:42.922Z,61.93
2019-01-26T11:52:08.960Z,58.90
2019-01-26T11:57:29.635Z,40.10
2019-01-26T12:02:49.906Z,43.57
2019-01-26T12:08:08.612Z,42.10
2019-01-26T12:13:27.321Z,48.77
2019-01-26T12:18:45.911Z,57.63
2019-01-26T12:24:04.532Z,38.77
2019-01-26T12:29:23.100Z,34.93
2019-01-26T12:34:42.074Z,41.93
2019-01-26T12:40:13.100Z,48.10
2019-01-26T12:45:44.453Z,42.97
2019-01-26T12:51:26.062Z,30.83
2019-01-26T12:56:45.180Z,35.27
2019-01-26T13:02:04.303Z,33.37
2019-01-26T13:07:22.947Z,31.73
2019-01-26T13:12:41.589Z,29.03
2019-01-26T13:18:00.204Z,23.20
2019-01-26T13:23:18.831Z,13.37
2019-01-26T13:28:37.712Z,13.03
2019-01-26T13:33:56.323Z,23.97
2019-01-26T13:39:15.044Z,25.90
2019-01-26T13:44:33.613Z,23.57
2019-01-26T13:49:52.237Z,20.03
2019-01-26T13:55:18.914Z,20.47
2019-01-26T14:00:37.954Z,16.37
2019-01-26T14:05:56.574Z,30.97
2019-01-26T14:11:15.103Z,23.40
2019-01-26T14:16:33.780Z,21.13
2019-01-26T14:21:52.410Z,26.13
2019-01-26T14:27:11.076Z,26.50
2019-01-26T14:32:29.693Z,18.17
2019-01-26T14:37:48.580Z,22.17
2019-01-26T14:43:07.193Z,23.27
2019-01-26T14:48:25.808Z,24.67
2019-01-26T14:53:47.684Z,19.03
2019-01-26T14:59:04.794Z,14.57
2019-01-26T15:04:23.327Z,9.17
2019-01-26T15:09:44.135Z,14.25
2019-01-26T15:15:02.701Z,13.17
2019-01-26T15:20:26.574Z,27.20
2019-01-26T15:25:45.259Z,26.07
2019-01-26T15:31:03.966Z,32.20
2019-01-26T15:36:22.887Z,35.13
2019-01-26T15:41:41.817Z,34.67
2019-01-26T15:47:00.527Z,33.87
2019-01-26T15:52:19.137Z,34.07
2019-01-26T15:57:37.762Z,33.70
2019-01-26T16:02:57.039Z,31.37
2019-01-26T16:08:15.667Z,27.70
2019-01-26T16:13:34.231Z,22.33
2019-01-26T16:18:53.048Z,20.53
2019-01-26T16:24:11.687Z,25.60
2019-01-26T16:29:30.219Z,18.77
2019-01-26T16:34:48.931Z,26.33
2019-01-26T16:40:13.523Z,33.23
2019-01-26T16:45:37.768Z,23.17
2019-01-26T16:50:56.514Z,24.23
2019-01-26T16:56:15.226Z,25.67
2019-01-26T17:01:36.397Z,24.30
2019-01-26T17:06:55.048Z,28.90
2019-01-26T17:12:13.841Z,26.07
2019-01-26T17:17:32.579Z,28.83
2019-01-26T17:22:51.191Z,26.70
2019-01-26T17:28:09.802Z,28.60
2019-01-26T17:33:33.097Z,24.57
2019-01-26T17:38:51.727Z,25.90
2019-01-26T17:44:10.363Z,23.30
2019-01-26T17:49:28.973Z,24.63
2019-01-26T17:54:47.458Z,21.10
2019-01-26T18:00:11.632Z,23.80
2019-01-26T18:05:30.439Z,24.37
2019-01-26T18:10:49.065Z,21.33
2019-01-26T18:16:18.362Z,17.87
2019-01-26T18:21:36.982Z,14.27
2019-01-26T18:26:55.552Z,17.60
2019-01-26T18:32:14.181Z,18.53
2019-01-26T18:37:33.005Z,20.50
2019-01-26T18:42:51.668Z,17.70
2019-01-26T18:48:10.237Z,19.07
2019-01-26T18:53:28.782Z,17.87
2019-01-26T18:58:47.486Z,17.60
2019-01-26T19:04:09.383Z,18.73
2019-01-26T19:09:28.254Z,17.47
2019-01-26T19:14:46.774Z,19.93
2019-01-26T19:20:08.674Z,21.93
2019-01-26T19:25:27.394Z,19.57
2019-01-26T19:30:46.032Z,19.93
2019-01-26T19:36:04.901Z,18.10
2019-01-26T19:41:23.518Z,19.07
2019-01-26T19:46:42.131Z,14.97
2019-01-26T19:52:00.664Z,13.97
2019-01-26T19:57:19.216Z,13.73
2019-01-26T20:02:37.920Z,16.53
2019-01-26T20:07:56.465Z,17.40
2019-01-26T20:13:15.083Z,13.13
2019-01-26T20:18:33.714Z,13.53
2019-01-26T20:23:52.331Z,14.37
2019-01-26T20:29:11.006Z,13.73
2019-01-26T20:34:29.850Z,13.77
2019-01-26T20:39:48.961Z,14.50
2019-01-26T20:45:19.625Z,12.53
2019-01-26T20:50:42.350Z,12.27
2019-01-26T20:56:03.330Z,10.63
2019-01-26T21:01:21.918Z,11.75
2019-01-26T21:06:40.458Z,10.77
2019-01-26T21:11:58.920Z,9.57
2019-01-26T21:17:17.650Z,8.33
2019-01-26T21:22:36.376Z,12.20
2019-01-26T21:27:55.073Z,11.80
2019-01-26T21:33:13.814Z,7.60
2019-01-26T21:38:32.791Z,6.07
2019-01-26T21:43:51.303Z,7.10
2019-01-26T21:49:10.744Z,7.37
2019-01-26T21:54:29.363Z,6.33
2019-01-26T21:59:48.176Z,5.60
2019-01-26T22:05:09.190Z,4.57
2019-01-26T22:10:28.708Z,5.03
2019-01-26T22:15:47.329Z,6.40
2019-01-26T22:21:05.953Z,4.03
2019-01-26T22:26:24.574Z,5.63
2019-01-26T22:31:43.120Z,4.70
2019-01-26T22:37:01.741Z,4.45
2019-01-26T22:42:20.299Z,4.30
2019-01-26T22:47:40.356Z,4.70
2019-01-26T22:52:59.055Z,5.47
2019-01-26T22:58:17.688Z,2.70
2019-01-26T23:03:42.210Z,4.13
2019-01-26T23:09:05.407Z,4.90
2019-01-26T23:14:55.838Z,3.10
2019-01-26T23:20:39.090Z,6.25
2019-01-26T23:26:09.455Z,3.70
2019-01-26T23:31:27.914Z,4.53
2019-01-26T23:36:46.459Z,3.67
2019-01-26T23:42:05.091Z,3.60
2019-01-26T23:47:23.634Z,5.27
2019-01-26T23:52:42.275Z,3.77
2019-01-26T23:58:00.869Z,3.07
